createdAt,value
2023-10-10T00:02:12.508Z,18.39
2023-10-10T00:04:38.958Z,18.38
2023-10-10T00:07:05.369Z,18.37
2023-10-10T00:09:31.760Z,18.38
2023-10-10T00:11:58.175Z,18.31
2023-10-10T00:14:24.630Z,18.26
2023-10-10T00:16:50.947Z,18.28
2023-10-10T00:19:17.425Z,18.30
2023-10-10T00:21:43.811Z,18.29
2023-10-10T00:24:10.294Z,18.31
2023-10-10T00:26:36.674Z,18.31
2023-10-10T00:29:03.066Z,18.28
2023-10-10T00:31:29.462Z,18.27
2023-10-10T00:33:55.911Z,18.26
2023-10-10T00:36:22.285Z,18.26
2023-10-10T00:38:48.787Z,18.24
2023-10-10T00:41:15.155Z,18.22
2023-10-10T00:43:41.585Z,18.19
2023-10-10T00:46:07.987Z,18.15
2023-10-10T00:48:34.451Z,18.15
2023-10-10T00:51:00.793Z,18.15
2023-10-10T00:53:27.394Z,18.14
2023-10-10T00:55:53.699Z,18.14
2023-10-10T00:58:20.107Z,18.14
2023-10-10T01:00:46.536Z,18.09
2023-10-10T01:03:13.060Z,18.07
2023-10-10T01:05:39.342Z,18.09
2023-10-10T01:08:05.741Z,18.07
2023-10-10T01:10:32.202Z,18.07
2023-10-10T01:12:58.628Z,18.08
2023-10-10T01:15:24.983Z,18.10
2023-10-10T01:17:51.539Z,18.11
2023-10-10T01:20:17.820Z,18.08
2023-10-10T01:22:44.179Z,18.07
2023-10-10T01:25:10.602Z,18.04
2023-10-10T01:27:37.064Z,17.99
2023-10-10T01:30:03.461Z,17.97
2023-10-10T01:32:29.957Z,17.96
2023-10-10T01:34:56.262Z,17.96
2023-10-10T01:37:22.778Z,17.97
2023-10-10T01:39:49.151Z,17.97
2023-10-10T01:42:15.591Z,17.94
2023-10-10T01:44:42.041Z,17.92
2023-10-10T01:47:08.437Z,17.89
2023-10-10T01:49:37.162Z,17.91
2023-10-10T01:52:03.633Z,17.90
2023-10-10T01:54:29.992Z,17.89
2023-10-10T01:56:56.488Z,17.89
2023-10-10T01:59:22.934Z,17.90
2023-10-10T02:01:49.404Z,17.89
2023-10-10T02:04:15.683Z,17.87
2023-10-10T02:06:42.109Z,17.83
2023-10-10T02:09:08.502Z,17.82
2023-10-10T02:11:34.961Z,17.78
2023-10-10T02:14:01.338Z,17.76
2023-10-10T02:16:27.722Z,17.77
2023-10-10T02:18:54.045Z,17.74
2023-10-10T02:21:20.511Z,17.73
2023-10-10T02:23:46.909Z,17.69
2023-10-10T02:26:13.405Z,17.71
2023-10-10T02:28:39.685Z,17.72
2023-10-10T02:31:06.225Z,17.73
2023-10-10T02:33:32.679Z,17.74
2023-10-10T02:35:59.040Z,17.77
2023-10-10T02:38:25.447Z,17.79
2023-10-10T02:40:51.861Z,17.77
2023-10-10T02:43:18.265Z,17.77
2023-10-10T02:45:44.692Z,17.76
2023-10-10T02:48:11.176Z,17.75
2023-10-10T02:50:37.723Z,17.75
2023-10-10T02:53:04.119Z,17.74
2023-10-10T02:55:30.621Z,17.73
2023-10-10T02:57:57.100Z,17.74
2023-10-10T03:00:23.660Z,17.75
2023-10-10T03:02:50.122Z,17.76
2023-10-10T03:05:17.012Z,17.77
2023-10-10T03:07:42.859Z,17.79
2023-10-10T03:10:09.302Z,17.80
2023-10-10T03:12:35.746Z,17.82
2023-10-10T03:15:02.252Z,17.81
2023-10-10T03:17:28.788Z,17.83
2023-10-10T03:19:55.109Z,17.82
2023-10-10T03:22:21.467Z,17.81
2023-10-10T03:24:47.896Z,17.85
2023-10-10T03:27:14.281Z,17.88
2023-10-10T03:29:40.792Z,17.88
2023-10-10T03:32:07.180Z,17.90
2023-10-10T03:34:33.555Z,17.91
2023-10-10T03:36:59.912Z,17.89
2023-10-10T03:39:26.401Z,17.91
2023-10-10T03:41:52.721Z,17.92
2023-10-10T03:44:19.265Z,17.91
2023-10-10T03:46:45.581Z,17.93
2023-10-10T03:49:12.093Z,17.93
2023-10-10T03:51:38.439Z,17.96
2023-10-10T03:54:04.962Z,17.96
2023-10-10T03:56:31.402Z,17.96
2023-10-10T03:58:57.859Z,17.96
2023-10-10T04:01:24.293Z,17.97
2023-10-10T04:03:50.773Z,17.98
2023-10-10T04:06:17.270Z,17.97
2023-10-10T04:08:43.822Z,17.97
2023-10-10T04:11:10.169Z,17.97
2023-10-10T04:13:36.626Z,17.97
2023-10-10T04:16:02.994Z,17.97
2023-10-10T04:18:29.513Z,17.95
2023-10-10T04:20:55.931Z,17.92
2023-10-10T04:23:22.437Z,17.91
2023-10-10T04:25:48.791Z,17.92
2023-10-10T04:28:15.229Z,17.91
2023-10-10T04:30:41.622Z,17.91
2023-10-10T04:33:08.143Z,17.91
2023-10-10T04:35:34.490Z,17.93
2023-10-10T04:38:01.054Z,17.94
2023-10-10T04:40:27.323Z,17.96
2023-10-10T04:42:53.766Z,18.04
2023-10-10T04:45:20.148Z,18.28
2023-10-10T04:47:46.716Z,18.46
2023-10-10T04:50:13.038Z,18.58
2023-10-10T04:52:39.435Z,18.64
2023-10-10T04:55:05.795Z,18.58
2023-10-10T04:57:32.335Z,18.48
2023-10-10T04:59:58.749Z,18.41
2023-10-10T05:02:25.267Z,18.36
2023-10-10T05:04:51.519Z,18.31
2023-10-10T05:07:18.063Z,18.28
2023-10-10T05:09:44.453Z,18.26
2023-10-10T05:12:10.949Z,18.24
2023-10-10T05:14:37.422Z,18.24
2023-10-10T05:17:03.783Z,18.23
2023-10-10T05:19:30.115Z,18.21
2023-10-10T05:21:56.594Z,18.21
2023-10-10T05:24:22.982Z,18.20
2023-10-10T05:26:49.443Z,18.19
2023-10-10T05:29:15.811Z,18.20
2023-10-10T05:31:42.352Z,18.20
2023-10-10T05:34:08.691Z,18.19
2023-10-10T05:36:35.162Z,18.19
2023-10-10T05:39:01.514Z,18.19
2023-10-10T05:41:28.110Z,18.18
2023-10-10T05:43:54.454Z,18.19
2023-10-10T05:46:20.913Z,18.19
2023-10-10T05:48:47.268Z,18.21
2023-10-10T05:51:13.911Z,18.23
2023-10-10T05:53:40.554Z,18.28
2023-10-10T05:56:07.079Z,18.29
2023-10-10T05:58:33.412Z,18.30
2023-10-10T06:01:00.083Z,18.33
2023-10-10T06:03:26.473Z,18.44
2023-10-10T06:05:52.957Z,18.58
2023-10-10T06:08:19.364Z,18.66
2023-10-10T06:10:45.717Z,18.69
2023-10-10T06:13:12.161Z,18.75
2023-10-10T06:15:38.606Z,18.92
2023-10-10T06:18:05.076Z,19.04
2023-10-10T06:20:31.489Z,19.10
2023-10-10T06:22:57.904Z,19.24
2023-10-10T06:25:24.291Z,19.39
2023-10-10T06:27:50.706Z,19.53
2023-10-10T06:30:17.101Z,19.64
2023-10-10T06:32:43.752Z,19.83
2023-10-10T06:35:10.097Z,19.96
2023-10-10T06:37:36.471Z,19.97
2023-10-10T06:40:02.912Z,20.01
2023-10-10T06:42:29.492Z,20.10
2023-10-10T06:44:55.748Z,20.34
2023-10-10T06:47:22.166Z,20.53
2023-10-10T06:49:48.663Z,20.52
2023-10-10T06:52:15.092Z,20.44
2023-10-10T06:54:41.539Z,20.33
2023-10-10T06:57:07.955Z,20.24
2023-10-10T06:59:34.417Z,20.21
2023-10-10T07:02:00.857Z,20.21
2023-10-10T07:04:27.382Z,20.33
2023-10-10T07:06:53.780Z,20.43
2023-10-10T07:09:20.194Z,20.51
2023-10-10T07:11:46.655Z,20.50
2023-10-10T07:14:13.313Z,20.47
2023-10-10T07:16:39.729Z,20.42
2023-10-10T07:19:06.165Z,20.42
2023-10-10T07:21:32.568Z,20.47
2023-10-10T07:23:59.134Z,20.53
2023-10-10T07:26:25.587Z,20.64
2023-10-10T07:28:51.986Z,20.74
2023-10-10T07:31:18.465Z,21.06
2023-10-10T07:33:44.856Z,21.44
2023-10-10T07:36:11.255Z,21.61
2023-10-10T07:38:37.750Z,21.63
2023-10-10T07:41:04.043Z,21.55
2023-10-10T07:43:30.482Z,21.43
2023-10-10T07:45:56.920Z,21.33
2023-10-10T07:48:23.353Z,21.23
2023-10-10T07:50:49.794Z,21.20
2023-10-10T07:53:16.232Z,21.16
2023-10-10T07:55:42.565Z,21.14
2023-10-10T07:58:09.094Z,21.12
2023-10-10T08:00:35.506Z,21.16
2023-10-10T08:03:02.126Z,21.25
2023-10-10T08:05:28.552Z,21.35
2023-10-10T08:07:55.134Z,21.38
2023-10-10T08:10:21.558Z,21.41
2023-10-10T08:12:47.962Z,21.41
2023-10-10T08:15:14.356Z,21.39
2023-10-10T08:17:40.920Z,21.49
2023-10-10T08:20:07.234Z,21.57
2023-10-10T08:22:33.641Z,21.59
2023-10-10T08:25:00.057Z,21.54
2023-10-10T08:27:26.488Z,21.47
2023-10-10T08:29:52.935Z,21.41
2023-10-10T08:32:19.382Z,21.38
2023-10-10T08:34:45.695Z,21.34
2023-10-10T08:37:12.236Z,21.34
2023-10-10T08:39:38.663Z,21.34
2023-10-10T08:42:05.097Z,21.38
2023-10-10T08:44:31.471Z,21.38
2023-10-10T08:46:57.895Z,21.36
2023-10-10T08:49:24.328Z,21.36
2023-10-10T08:51:50.771Z,21.33
2023-10-10T08:54:18.111Z,21.29
2023-10-10T08:56:43.648Z,21.24
2023-10-10T08:59:10.152Z,21.18
2023-10-10T09:01:36.594Z,21.11
2023-10-10T09:04:03.039Z,21.07
2023-10-10T09:06:29.642Z,21.06
2023-10-10T09:08:56.056Z,21.06
2023-10-10T09:11:22.567Z,21.03
2023-10-10T09:13:48.863Z,21.01
2023-10-10T09:16:15.393Z,20.99
2023-10-10T09:18:41.814Z,21.00
2023-10-10T09:21:08.324Z,20.99
2023-10-10T09:23:34.721Z,21.00
2023-10-10T09:26:01.198Z,21.00
2023-10-10T09:28:27.654Z,21.04
2023-10-10T09:30:54.197Z,21.11
2023-10-10T09:33:20.711Z,21.18
2023-10-10T09:35:47.308Z,21.28
2023-10-10T09:38:13.629Z,21.42
2023-10-10T09:40:40.118Z,21.58
2023-10-10T09:43:06.451Z,21.72
2023-10-10T09:45:32.867Z,21.79
2023-10-10T09:47:59.310Z,21.88
2023-10-10T09:50:25.757Z,21.96
2023-10-10T09:52:52.188Z,22.03
2023-10-10T09:55:18.556Z,22.10
2023-10-10T09:57:44.891Z,22.18
2023-10-10T10:00:23.858Z,22.25
2023-10-10T10:02:37.816Z,22.40
2023-10-10T10:05:04.252Z,22.58
2023-10-10T10:07:30.728Z,22.77
2023-10-10T10:09:57.190Z,22.97
2023-10-10T10:12:23.557Z,23.07
2023-10-10T10:14:50.083Z,23.13
2023-10-10T10:17:16.627Z,23.20
2023-10-10T10:19:42.960Z,23.21
2023-10-10T10:22:09.489Z,23.16
2023-10-10T10:24:35.867Z,23.10
2023-10-10T10:27:02.440Z,23.05
2023-10-10T10:29:28.899Z,22.98
2023-10-10T10:31:55.426Z,22.89
2023-10-10T10:34:21.759Z,22.83
2023-10-10T10:36:48.200Z,22.76
2023-10-10T10:39:15.642Z,22.68
2023-10-10T10:41:41.069Z,22.59
2023-10-10T10:44:07.464Z,22.50
2023-10-10T10:46:33.929Z,22.40
2023-10-10T10:49:00.256Z,22.32
2023-10-10T10:51:26.793Z,22.25
2023-10-10T10:53:53.313Z,22.17
2023-10-10T10:56:19.837Z,22.12
2023-10-10T10:58:46.101Z,22.06
2023-10-10T11:01:12.647Z,21.99
2023-10-10T11:03:39.003Z,21.94
2023-10-10T11:06:05.537Z,21.90
2023-10-10T11:08:39.525Z,21.86
2023-10-10T11:10:58.319Z,21.80
2023-10-10T11:13:24.675Z,21.79
2023-10-10T11:15:51.215Z,21.77
2023-10-10T11:18:18.256Z,21.75
2023-10-10T11:20:44.136Z,21.72
2023-10-10T11:23:10.516Z,21.69
2023-10-10T11:25:37.022Z,21.65
2023-10-10T11:28:03.455Z,21.64
2023-10-10T11:30:30.103Z,21.62
2023-10-10T11:32:56.651Z,21.62
2023-10-10T11:35:22.996Z,21.59
2023-10-10T11:37:49.377Z,21.59
2023-10-10T11:40:15.841Z,21.60
2023-10-10T11:42:42.204Z,21.63
2023-10-10T11:45:08.790Z,21.64
2023-10-10T11:47:35.140Z,21.66
2023-10-10T11:50:01.624Z,21.69
2023-10-10T11:52:27.932Z,21.70
2023-10-10T11:54:54.421Z,21.71
2023-10-10T11:57:20.784Z,21.69
2023-10-10T11:59:47.329Z,21.69
2023-10-10T12:02:13.792Z,21.66
2023-10-10T12:04:40.092Z,21.63
2023-10-10T12:07:06.988Z,21.58
2023-10-10T12:09:33.021Z,21.54
2023-10-10T12:11:59.462Z,21.48
2023-10-10T12:14:26.040Z,21.47
2023-10-10T12:16:52.438Z,21.42
2023-10-10T12:19:18.824Z,21.41
2023-10-10T12:21:45.199Z,21.39
2023-10-10T12:24:11.743Z,21.38
2023-10-10T12:26:38.183Z,21.37
2023-10-10T12:29:04.634Z,21.37
2023-10-10T12:31:31.194Z,21.35
2023-10-10T12:33:57.684Z,21.32
2023-10-10T12:36:24.141Z,21.30
2023-10-10T12:38:50.675Z,21.28
2023-10-10T12:41:17.218Z,21.25
2023-10-10T12:43:43.600Z,21.26
2023-10-10T12:46:09.962Z,21.27
2023-10-10T12:48:36.524Z,21.23
2023-10-10T12:51:04.167Z,21.22
2023-10-10T12:53:30.938Z,21.21
2023-10-10T12:55:57.428Z,21.19
2023-10-10T12:58:23.952Z,21.19
2023-10-10T13:00:50.344Z,21.19
2023-10-10T13:03:16.915Z,21.19
2023-10-10T13:05:43.224Z,21.18
2023-10-10T13:08:09.687Z,21.19
2023-10-10T13:10:36.106Z,21.20
2023-10-10T13:13:02.677Z,21.17
2023-10-10T13:15:29.078Z,21.17
2023-10-10T13:17:55.728Z,21.19
2023-10-10T13:20:22.083Z,21.20
2023-10-10T13:22:48.588Z,21.21
2023-10-10T13:25:14.943Z,21.20
2023-10-10T13:27:41.442Z,21.20
2023-10-10T13:30:07.793Z,21.20
2023-10-10T13:32:34.375Z,21.20
2023-10-10T13:35:00.698Z,21.20
2023-10-10T13:37:27.086Z,21.19
2023-10-10T13:39:53.443Z,21.19
2023-10-10T13:42:19.936Z,21.18
2023-10-10T13:44:46.440Z,21.17
2023-10-10T13:47:12.776Z,21.18
2023-10-10T13:49:39.147Z,21.18
2023-10-10T13:52:05.691Z,21.17
2023-10-10T13:54:32.207Z,21.15
2023-10-10T13:56:58.695Z,21.14
2023-10-10T13:59:25.312Z,21.13
2023-10-10T14:01:51.850Z,21.12
2023-10-10T14:04:18.534Z,21.10
2023-10-10T14:06:44.581Z,21.06
2023-10-10T14:09:11.131Z,21.04
2023-10-10T14:11:37.606Z,21.05
2023-10-10T14:14:03.923Z,21.03
2023-10-10T14:16:30.469Z,21.02
2023-10-10T14:18:56.849Z,21.02
2023-10-10T14:21:23.276Z,21.01
2023-10-10T14:23:49.699Z,21.00
2023-10-10T14:26:16.144Z,20.99
2023-10-10T14:28:42.504Z,20.99
2023-10-10T14:31:09.049Z,20.98
2023-10-10T14:33:35.482Z,20.98
2023-10-10T14:36:01.838Z,20.97
2023-10-10T14:38:28.190Z,20.96
2023-10-10T14:40:54.635Z,20.95
2023-10-10T14:43:20.995Z,20.94
2023-10-10T14:45:47.520Z,20.94
2023-10-10T14:48:14.038Z,20.95
2023-10-10T14:50:42.593Z,20.95
2023-10-10T14:53:08.901Z,20.97
2023-10-10T14:55:35.368Z,20.96
2023-10-10T14:58:01.761Z,20.92
2023-10-10T15:00:30.617Z,20.95
2023-10-10T15:02:57.213Z,20.94
2023-10-10T15:05:23.489Z,20.92
2023-10-10T15:07:49.853Z,20.90
2023-10-10T15:10:16.282Z,20.88
2023-10-10T15:12:42.788Z,20.90
2023-10-10T15:15:09.109Z,20.90
2023-10-10T15:17:35.582Z,20.89
2023-10-10T15:20:01.902Z,20.88
2023-10-10T15:22:28.268Z,20.87
2023-10-10T15:24:54.735Z,20.85
2023-10-10T15:27:21.164Z,20.83
2023-10-10T15:29:47.763Z,20.82
2023-10-10T15:32:14.143Z,20.80
2023-10-10T15:34:42.433Z,20.80
2023-10-10T15:37:06.958Z,20.79
2023-10-10T15:39:33.355Z,20.74
2023-10-10T15:41:59.788Z,20.78
2023-10-10T15:44:27.473Z,20.77
2023-10-10T15:46:53.846Z,20.76
2023-10-10T15:49:33.536Z,20.74
2023-10-10T15:51:46.751Z,20.73
2023-10-10T15:54:13.141Z,20.72
2023-10-10T15:56:39.504Z,20.70
2023-10-10T15:59:06.039Z,20.73
2023-10-10T16:01:32.465Z,20.74
2023-10-10T16:03:58.954Z,20.72
2023-10-10T16:06:25.218Z,20.75
2023-10-10T16:08:51.733Z,20.79
2023-10-10T16:11:18.078Z,20.78
2023-10-10T16:13:45.158Z,20.74
2023-10-10T16:16:11.520Z,20.72
2023-10-10T16:18:38.083Z,20.67
2023-10-10T16:21:04.386Z,20.67
2023-10-10T16:23:30.781Z,20.65
2023-10-10T16:25:57.106Z,20.62
2023-10-10T16:28:23.630Z,20.60
2023-10-10T16:30:50.037Z,20.60
2023-10-10T16:33:16.572Z,20.57
2023-10-10T16:35:42.904Z,20.57
2023-10-10T16:38:09.291Z,20.53
2023-10-10T16:40:35.703Z,20.50
2023-10-10T16:43:02.195Z,20.49
2023-10-10T16:45:28.602Z,20.50
2023-10-10T16:47:55.066Z,20.50
2023-10-10T16:50:21.389Z,20.46
2023-10-10T16:52:56.619Z,20.46
2023-10-10T16:55:14.225Z,20.43
2023-10-10T16:57:42.982Z,20.41
2023-10-10T17:00:09.364Z,20.36
2023-10-10T17:02:35.896Z,20.31
2023-10-10T17:05:02.684Z,20.30
2023-10-10T17:07:28.678Z,20.29
2023-10-10T17:09:56.222Z,20.32
2023-10-10T17:12:22.638Z,20.31
2023-10-10T17:14:49.126Z,20.27
2023-10-10T17:17:15.530Z,20.24
2023-10-10T17:19:42.019Z,20.19
2023-10-10T17:22:08.395Z,20.15
2023-10-10T17:24:34.755Z,20.10
2023-10-10T17:27:01.234Z,20.07
2023-10-10T17:29:27.659Z,20.05
2023-10-10T17:31:54.058Z,20.01
2023-10-10T17:34:20.452Z,19.97
2023-10-10T17:36:46.882Z,19.93
2023-10-10T17:39:13.262Z,19.92
2023-10-10T17:41:39.686Z,19.90
2023-10-10T17:44:06.015Z,19.88
2023-10-10T17:46:32.490Z,19.86
2023-10-10T17:48:59.013Z,19.91
2023-10-10T17:51:25.644Z,19.96
2023-10-10T17:53:51.832Z,20.00
2023-10-10T17:56:18.125Z,19.97
2023-10-10T17:58:44.530Z,19.90
2023-10-10T18:01:11.043Z,19.85
2023-10-10T18:03:37.481Z,19.81
2023-10-10T18:06:03.848Z,19.76
2023-10-10T18:08:30.237Z,19.72
2023-10-10T18:10:56.608Z,19.67
2023-10-10T18:13:23.581Z,19.63
2023-10-10T18:15:50.048Z,19.62
2023-10-10T18:18:16.612Z,19.60
2023-10-10T18:20:43.153Z,19.57
2023-10-10T18:23:09.479Z,19.54
2023-10-10T18:25:35.930Z,19.53
2023-10-10T18:28:02.311Z,19.51
2023-10-10T18:30:28.835Z,19.49
2023-10-10T18:32:55.258Z,19.48
2023-10-10T18:35:21.663Z,19.46
2023-10-10T18:37:48.014Z,19.44
2023-10-10T18:40:14.508Z,19.41
2023-10-10T18:42:41.056Z,19.37
2023-10-10T18:45:07.637Z,19.34
2023-10-10T18:47:34.081Z,19.32
2023-10-10T18:50:00.429Z,19.33
2023-10-10T18:52:26.820Z,19.39
2023-10-10T18:54:53.420Z,19.40
2023-10-10T18:57:19.823Z,19.31
2023-10-10T18:59:46.252Z,19.24
2023-10-10T19:02:12.707Z,19.18
2023-10-10T19:04:39.323Z,19.16
2023-10-10T19:07:05.724Z,19.14
2023-10-10T19:09:32.173Z,19.12
2023-10-10T19:11:59.138Z,19.08
2023-10-10T19:14:26.127Z,19.02
2023-10-10T19:16:52.469Z,19.00
2023-10-10T19:19:19.027Z,18.98
2023-10-10T19:21:45.355Z,18.95
2023-10-10T19:24:11.820Z,18.93
2023-10-10T19:26:38.134Z,18.91
2023-10-10T19:29:04.570Z,18.86
2023-10-10T19:31:30.977Z,18.81
2023-10-10T19:33:57.431Z,18.72
2023-10-10T19:36:23.752Z,18.71
2023-10-10T19:38:50.225Z,18.68
2023-10-10T19:41:16.545Z,18.65
2023-10-10T19:43:42.971Z,18.65
2023-10-10T19:46:09.377Z,18.63
2023-10-10T19:48:35.890Z,18.67
2023-10-10T19:51:02.301Z,18.65
2023-10-10T19:53:28.785Z,18.66
2023-10-10T19:55:55.064Z,18.71
2023-10-10T19:58:22.388Z,18.75
2023-10-10T20:00:48.487Z,18.77
2023-10-10T20:03:14.993Z,18.73
2023-10-10T20:05:41.431Z,18.69
2023-10-10T20:08:07.839Z,18.71
2023-10-10T20:10:34.247Z,18.69
2023-10-10T20:13:00.681Z,18.66
2023-10-10T20:15:27.097Z,18.62
2023-10-10T20:17:53.649Z,18.60
2023-10-10T20:20:19.970Z,18.57
2023-10-10T20:22:46.443Z,18.55
2023-10-10T20:25:12.801Z,18.51
2023-10-10T20:27:39.203Z,18.50
2023-10-10T20:30:05.822Z,18.48
2023-10-10T20:32:32.337Z,18.46
2023-10-10T20:34:58.635Z,18.49
2023-10-10T20:37:25.167Z,18.49
2023-10-10T20:39:54.156Z,18.48
2023-10-10T20:42:20.564Z,18.49
2023-10-10T20:44:48.147Z,18.46
2023-10-10T20:47:14.661Z,18.42
2023-10-10T20:49:41.219Z,18.39
2023-10-10T20:52:07.761Z,18.39
2023-10-10T20:54:34.275Z,18.38
2023-10-10T20:57:00.753Z,18.36
2023-10-10T20:59:27.360Z,18.36
2023-10-10T21:01:53.761Z,18.31
2023-10-10T21:04:20.371Z,18.26
2023-10-10T21:06:46.737Z,18.26
2023-10-10T21:09:13.377Z,18.20
2023-10-10T21:11:39.719Z,18.13
2023-10-10T21:14:06.192Z,18.05
2023-10-10T21:16:32.707Z,18.02
2023-10-10T21:18:59.289Z,17.97
2023-10-10T21:21:25.695Z,17.95
2023-10-10T21:23:52.161Z,17.93
2023-10-10T21:26:18.524Z,17.94
2023-10-10T21:28:44.942Z,17.95
2023-10-10T21:31:11.462Z,17.97
2023-10-10T21:33:38.163Z,17.95
2023-10-10T21:36:04.357Z,17.94
2023-10-10T21:38:30.854Z,17.94
2023-10-10T21:40:57.204Z,17.90
2023-10-10T21:43:23.648Z,17.86
2023-10-10T21:45:50.182Z,17.79
2023-10-10T21:48:16.799Z,17.77
2023-10-10T21:50:43.134Z,17.78
2023-10-10T21:53:09.582Z,17.86
2023-10-10T21:55:35.975Z,17.96
2023-10-10T21:58:02.428Z,17.97
2023-10-10T22:00:28.776Z,17.94
2023-10-10T22:02:55.334Z,17.88
2023-10-10T22:05:21.581Z,17.81
2023-10-10T22:07:48.313Z,17.76
2023-10-10T22:10:14.634Z,17.75
2023-10-10T22:12:41.015Z,17.74
2023-10-10T22:15:07.432Z,17.73
2023-10-10T22:17:33.994Z,17.69
2023-10-10T22:20:00.375Z,17.64
2023-10-10T22:22:26.886Z,17.65
2023-10-10T22:24:53.236Z,17.65
2023-10-10T22:27:19.745Z,17.66
2023-10-10T22:29:46.179Z,17.67
2023-10-10T22:32:12.828Z,17.68
2023-10-10T22:34:39.351Z,17.67
2023-10-10T22:37:08.884Z,17.64
2023-10-10T22:39:32.174Z,17.60
2023-10-10T22:41:58.694Z,17.56
2023-10-10T22:44:25.018Z,17.52
2023-10-10T22:46:51.507Z,17.47
2023-10-10T22:49:18.025Z,17.45
2023-10-10T22:51:44.409Z,17.45
2023-10-10T22:54:10.883Z,17.40
2023-10-10T22:56:37.379Z,17.39
2023-10-10T22:59:03.787Z,17.36
2023-10-10T23:01:30.370Z,17.29
2023-10-10T23:03:56.912Z,17.19
2023-10-10T23:06:23.105Z,17.18
2023-10-10T23:08:49.567Z,17.16
2023-10-10T23:11:15.977Z,17.08
2023-10-10T23:13:42.386Z,17.01
2023-10-10T23:16:08.890Z,16.98
2023-10-10T23:18:35.346Z,16.95
2023-10-10T23:21:01.752Z,16.97
2023-10-10T23:23:28.129Z,16.95
2023-10-10T23:25:54.692Z,16.95
2023-10-10T23:28:21.051Z,16.91
2023-10-10T23:30:47.581Z,16.87
2023-10-10T23:33:14.539Z,16.85
2023-10-10T23:35:40.640Z,16.79
2023-10-10T23:38:07.139Z,16.69
2023-10-10T23:40:33.461Z,16.59
2023-10-10T23:42:59.909Z,16.57
2023-10-10T23:45:26.448Z,16.58
2023-10-10T23:47:52.806Z,16.60
2023-10-10T23:50:19.181Z,16.58
2023-10-10T23:52:45.560Z,16.57
2023-10-10T23:55:12.053Z,16.51
2023-10-10T23:57:38.438Z,16.49
